Time;durP1;ratioP1;P1;durP2;ratioP2;P2;SDS_P1;SDS_P2;PMS_P1;PMS_P2;Temp;Humidity;BMP_temperature;BMP_pressure;BME280_temperature;BME280_humidity;BME280_pressure;Samples;Min_cycle;Max_cycle;Signal;HPM_P1;HPM_P2
2022/11/18 00:01:22;;;;;;;4.47;1.42;;;;;;;10.25;79.84;98810.13;4193605;28;20500;-67
2022/11/18 00:03:25;;;;;;;4.80;1.85;;;;;;;10.24;80.30;98814.47;4195391;28;20037;-66
2022/11/18 00:05:28;;;;;;;2.63;1.38;;;;;;;10.22;80.21;98817.94;4192772;28;20079;-67
2022/11/18 00:07:30;;;;;;;2.08;1.13;;;;;;;10.22;79.84;98820.53;4195879;28;20153;-66
2022/11/18 00:09:35;;;;;;;3.28;1.40;;;;;;;10.27;80.19;98816.16;4185116;28;20393;-66
2022/11/18 00:16:18;;;;;;;4.10;1.15;;;;;;;10.19;80.07;98807.59;4191736;28;20045;-66
2022/11/18 00:18:21;;;;;;;3.90;1.33;;;;;;;10.18;80.25;98808.47;4193261;28;20036;-67
2022/11/18 00:20:24;;;;;;;1.98;1.17;;;;;;;10.21;80.12;98800.66;4191526;28;20029;-67
2022/11/18 00:22:27;;;;;;;5.43;2.40;;;;;;;10.31;80.33;98810.06;4184816;28;20544;-67
2022/11/18 00:24:31;;;;;;;3.80;1.50;;;;;;;10.25;80.05;98807.50;4189087;28;20502;-67
2022/11/18 00:26:36;;;;;;;3.45;2.05;;;;;;;10.20;80.24;98812.78;4183335;28;20095;-67
2022/11/18 00:28:39;;;;;;;3.25;1.73;;;;;;;10.16;80.53;98810.22;4189237;28;20522;-67
2022/11/18 00:30:42;;;;;;;5.72;2.17;;;;;;;10.14;80.85;98811.09;4193031;28;20482;-66
2022/11/18 00:32:45;;;;;;;5.65;2.42;;;;;;;10.21;80.42;98811.06;4194501;28;20037;-67
2022/11/18 00:34:47;;;;;;;3.50;1.83;;;;;;;10.19;80.28;98817.97;4191867;28;20047;-67
2022/11/18 00:36:50;;;;;;;6.60;1.98;;;;;;;10.18;80.23;98811.94;4184787;28;20036;-67
2022/11/18 00:38:53;;;;;;;3.15;1.83;;;;;;;10.22;80.30;98808.44;4186352;28;20037;-67
2022/11/18 00:41:00;;;;;;;5.07;1.75;;;;;;;10.23;80.79;98814.47;4195505;28;20047;-67
2022/11/18 00:43:03;;;;;;;3.85;1.30;;;;;;;10.20;80.99;98810.16;4174314;28;20408;-67
2022/11/18 00:45:07;;;;;;;5.55;1.70;;;;;;;10.27;80.63;98811.81;4192190;28;20041;-67
2022/11/18 00:47:09;;;;;;;3.08;1.40;;;;;;;10.23;80.55;98812.72;4193424;28;20033;-67
2022/11/18 00:49:12;;;;;;;4.15;1.50;;;;;;;10.27;81.06;98813.56;4191797;28;20064;-67
2022/11/18 00:51:17;;;;;;;3.60;1.20;;;;;;;10.34;79.99;98816.97;4193716;28;20491;-67
2022/11/18 00:53:22;;;;;;;4.18;1.30;;;;;;;10.24;80.83;98816.22;4161884;28;20052;-67
2022/11/18 00:55:25;;;;;;;3.65;1.45;;;;;;;10.26;80.60;98812.69;4180299;28;20511;-67
2022/11/18 00:57:27;;;;;;;4.78;1.60;;;;;;;10.16;80.58;98808.47;4180319;28;20041;-67
2022/11/18 00:59:31;;;;;;;2.95;1.48;;;;;;;10.16;80.29;98813.66;4162706;28;20069;-67
2022/11/18 01:01:34;;;;;;;2.65;1.70;;;;;;;10.14;81.26;98821.47;4171211;28;20033;-67
2022/11/18 01:03:37;;;;;;;3.85;1.60;;;;;;;10.19;80.97;98820.56;4195885;28;20048;-67
2022/11/18 01:05:40;;;;;;;2.42;1.10;;;;;;;10.19;80.92;98815.38;4189352;28;20472;-67
2022/11/18 01:07:43;;;;;;;6.68;1.73;;;;;;;10.15;81.25;98819.75;4187495;28;20052;-67
2022/11/18 01:09:46;;;;;;;3.55;1.63;;;;;;;10.12;80.86;98828.44;4185296;28;20294;-67
2022/11/18 01:14:09;;;;;;;4.20;1.40;;;;;;;9.97;81.44;98836.38;4191463;28;20486;-67
2022/11/18 01:16:18;;;;;;;2.08;1.48;;;;;;;10.04;81.00;98834.59;4190042;28;20029;-67
2022/11/18 01:18:23;;;;;;;3.55;1.45;;;;;;;10.02;81.18;98834.59;4186059;28;20036;-67
2022/11/18 01:20:25;;;;;;;8.98;3.65;;;;;;;10.00;81.59;98831.13;4192672;28;20036;-67
2022/11/18 01:22:28;;;;;;;2.88;1.63;;;;;;;10.02;81.27;98837.19;4189693;28;20033;-67
2022/11/18 01:24:32;;;;;;;2.20;1.33;;;;;;;9.98;81.82;98845.88;4191704;28;20048;-67
2022/11/18 01:26:35;;;;;;;6.05;1.65;;;;;;;10.01;82.09;98850.19;4193322;28;20066;-67
2022/11/18 01:28:39;;;;;;;6.20;1.90;;;;;;;9.98;81.75;98840.69;4193789;28;20033;-67
2022/11/18 01:30:42;;;;;;;;;;;;;;;9.92;82.29;98853.75;4193541;28;20049;-67
2022/11/18 01:32:46;;;;;;;1.98;1.52;;;;;;;9.92;81.89;98848.53;4183040;28;19925;-67
2022/11/18 01:34:49;;;;;;;4.82;2.20;;;;;;;10.03;81.82;98853.63;4182178;28;20053;-67
2022/11/18 01:36:52;;;;;;;3.35;2.10;;;;;;;10.07;81.48;98848.38;4184391;28;20045;-67
2022/11/18 01:38:56;;;;;;;4.30;1.98;;;;;;;10.09;81.78;98853.56;4192820;28;20047;-67
2022/11/18 01:40:58;;;;;;;5.43;2.28;;;;;;;10.13;81.62;98850.94;4199404;28;20056;-67
2022/11/18 01:43:02;;;;;;;3.33;2.35;;;;;;;10.07;81.20;98860.50;4194733;28;20036;-67
2022/11/18 01:45:21;;;;;;;4.32;2.42;;;;;;;10.07;81.71;98853.56;4187746;28;20037;-67
2022/11/18 01:47:25;;;;;;;3.83;2.58;;;;;;;10.09;81.84;98853.56;4181392;28;20041;-67
2022/11/18 01:49:29;;;;;;;6.07;2.38;;;;;;;10.13;82.01;98850.06;4181582;28;20044;-67
2022/11/18 01:51:36;;;;;;;4.07;2.10;;;;;;;10.14;82.18;98847.44;4188819;28;20453;-67
2022/11/18 01:53:42;;;;;;;3.35;1.98;;;;;;;10.18;81.42;98848.28;4193104;28;20549;-67
2022/11/18 01:55:50;;;;;;;3.53;2.13;;;;;;;10.13;81.65;98843.16;4182829;28;20045;-67
2022/11/18 01:58:01;;;;;;;4.30;2.50;;;;;;;10.12;81.78;98849.22;4184778;28;20045;-66
2022/11/18 02:00:06;;;;;;;6.63;2.22;;;;;;;10.14;81.22;98850.03;4190966;28;20044;-67
2022/11/18 02:02:13;;;;;;;6.65;2.58;;;;;;;10.15;81.49;98848.31;4191681;28;20036;-67
2022/11/18 02:04:17;;;;;;;4.82;2.35;;;;;;;10.19;81.46;98846.53;4190993;28;20068;-67
2022/11/18 02:06:21;;;;;;;4.25;2.40;;;;;;;10.19;81.30;98849.16;4194424;28;20166;-67
2022/11/18 02:08:24;;;;;;;5.20;2.50;;;;;;;10.17;81.82;98845.72;4191364;28;20067;-67
2022/11/18 02:10:27;;;;;;;6.32;2.58;;;;;;;10.18;81.08;98850.00;4196772;28;20032;-67
2022/11/18 02:12:30;;;;;;;5.85;2.63;;;;;;;10.20;81.38;98856.06;4192787;28;20505;-67
2022/11/18 02:14:37;;;;;;;4.95;2.75;;;;;;;10.22;81.02;98862.09;4192128;28;20040;-67
2022/11/18 02:16:57;;;;;;;6.97;3.03;;;;;;;10.26;80.25;98861.19;4197773;28;20052;-68
2022/11/18 02:19:04;;;;;;;4.80;2.60;;;;;;;10.22;80.75;98864.69;4185334;28;20079;-67
2022/11/18 02:21:20;;;;;;;7.93;2.92;;;;;;;10.18;80.57;98863.88;4190346;28;20054;-67
2022/11/18 02:23:55;;;;;;;8.65;4.15;;;;;;;10.17;80.55;98871.69;4184648;28;20036;-68
2022/11/18 02:26:22;;;;;;;7.47;2.88;;;;;;;10.13;80.92;98870.84;4186862;28;20045;-67
2022/11/18 02:28:37;;;;;;;3.78;2.20;;;;;;;10.12;81.21;98866.53;4195359;28;20041;-67
2022/11/18 02:30:47;;;;;;;3.42;2.20;;;;;;;10.13;80.97;98870.84;4191042;28;20044;-67
2022/11/18 02:32:55;;;;;;;7.70;2.90;;;;;;;10.20;81.50;98859.50;4185619;28;20074;-67
2022/11/18 02:35:03;;;;;;;3.92;2.17;;;;;;;10.23;80.50;98867.28;4191014;28;20114;-67
2022/11/18 02:37:15;;;;;;;3.58;2.40;;;;;;;10.22;81.18;98864.69;4190702;28;20094;-67
2022/11/18 02:39:23;;;;;;;5.05;2.50;;;;;;;10.19;80.83;98868.19;4188512;28;20090;-68
2022/11/18 02:41:30;;;;;;;4.03;2.40;;;;;;;10.16;80.66;98876.00;4186329;28;20025;-67
2022/11/18 02:43:34;;;;;;;2.92;2.15;;;;;;;10.12;81.21;98880.38;4188961;28;20086;-67
2022/11/18 02:45:44;;;;;;;2.60;1.88;;;;;;;10.07;81.60;98876.09;4196406;28;20039;-66
2022/11/18 02:47:49;;;;;;;6.63;2.67;;;;;;;10.07;81.71;98882.13;4193493;28;20041;-67
2022/11/18 02:49:56;;;;;;;4.15;2.38;;;;;;;10.08;81.38;98881.28;4190454;28;20041;-67
2022/11/18 02:52:01;;;;;;;5.03;2.70;;;;;;;10.08;81.17;98883.88;4194688;28;20074;-67
2022/11/18 02:54:07;;;;;;;5.50;2.72;;;;;;;10.10;81.70;98876.94;4189459;28;20429;-67
2022/11/18 02:56:11;;;;;;;8.40;2.80;;;;;;;10.11;80.96;98882.97;4196572;28;20044;-67
2022/11/18 02:58:17;;;;;;;3.13;2.13;;;;;;;10.12;81.12;98884.72;4197767;28;20041;-67
2022/11/18 03:00:20;;;;;;;4.68;2.85;;;;;;;10.12;81.89;98882.97;4194591;28;20064;-67
2022/11/18 03:02:24;;;;;;;5.47;2.83;;;;;;;10.14;81.95;98891.59;4196388;28;20086;-67
2022/11/18 03:04:27;;;;;;;10.38;3.30;;;;;;;10.14;81.44;98886.41;4189880;28;20036;-67
2022/11/18 03:06:35;;;;;;;4.18;2.63;;;;;;;10.18;82.08;98894.16;4196512;28;20106;-67
2022/11/18 03:08:42;;;;;;;7.07;3.72;;;;;;;10.18;81.92;98889.84;4195942;28;20074;-67
2022/11/18 03:10:52;;;;;;;5.07;2.55;;;;;;;10.20;81.36;98888.09;4193391;28;20048;-67
2022/11/18 03:13:08;;;;;;;5.65;2.55;;;;;;;10.21;81.77;98891.56;4189824;28;20040;-67
2022/11/18 03:15:19;;;;;;;9.60;3.22;;;;;;;10.27;81.46;98897.53;4190315;28;20044;-67
2022/11/18 03:17:31;;;;;;;6.25;3.28;;;;;;;10.31;81.54;98893.19;4195034;28;20044;-67
2022/11/18 03:19:51;;;;;;;3.03;2.13;;;;;;;10.33;81.04;98900.97;4192763;28;20128;-66
2022/11/18 03:22:06;;;;;;;6.45;2.63;;;;;;;10.25;81.63;98896.69;4194637;28;20040;-67
2022/11/18 03:24:13;;;;;;;;;;;;;;;10.11;81.91;98902.00;4194453;28;20567;-68
2022/11/18 03:26:20;;;;;;;5.32;2.90;;;;;;;10.05;82.07;98903.81;4189697;28;19970;-67
2022/11/18 03:28:29;;;;;;;5.32;3.58;;;;;;;10.09;81.65;98911.56;4191642;28;20115;-67
2022/11/18 03:30:35;;;;;;;8.65;3.28;;;;;;;10.09;82.15;98911.56;4183882;28;20043;-67
2022/11/18 03:32:43;;;;;;;8.98;3.20;;;;;;;10.18;81.65;98909.75;4194899;28;20082;-67
2022/11/18 03:34:50;;;;;;;9.45;2.85;;;;;;;10.20;82.19;98908.00;4182407;28;20052;-68
2022/11/18 03:36:57;;;;;;;5.45;3.17;;;;;;;10.23;81.99;98908.81;4181711;28;20041;-67
2022/11/18 03:39:06;;;;;;;5.45;2.90;;;;;;;10.29;82.34;98913.09;4181078;28;20041;-67
2022/11/18 03:41:11;;;;;;;7.75;3.05;;;;;;;10.27;81.96;98909.66;4179884;28;20075;-67
2022/11/18 03:43:18;;;;;;;6.40;3.42;;;;;;;10.29;81.26;98907.91;4163320;28;20045;-67
2022/11/18 03:45:28;;;;;;;6.13;3.00;;;;;;;10.21;81.89;98910.59;4197064;28;20144;-67
2022/11/18 03:47:35;;;;;;;5.63;3.45;;;;;;;10.27;81.50;98920.06;4197573;28;20045;-67
2022/11/18 03:49:44;;;;;;;4.45;3.28;;;;;;;10.27;81.67;98922.66;4195749;28;20036;-68
2022/11/18 03:51:53;;;;;;;6.15;3.33;;;;;;;10.29;82.09;98929.56;4195970;28;20102;-67
2022/11/18 03:54:00;;;;;;;9.32;4.18;;;;;;;10.20;82.10;98921.84;4179941;28;20435;-67
2022/11/18 03:56:09;;;;;;;6.05;3.85;;;;;;;10.23;82.04;98929.59;4195339;28;20048;-67
2022/11/18 03:58:28;;;;;;;8.65;4.60;;;;;;;10.26;82.47;98931.31;4190425;28;20505;-67
2022/11/18 04:00:38;;;;;;;8.73;4.13;;;;;;;10.28;82.23;98927.84;4188317;28;20040;-67
2022/11/18 04:02:41;;;;;;;9.80;4.38;;;;;;;10.29;82.01;98936.47;4195099;28;20147;-67
2022/11/18 04:04:48;;;;;;;6.97;3.83;;;;;;;10.31;82.48;98932.16;4193590;28;20040;-67
2022/11/18 04:06:58;;;;;;;8.48;5.45;;;;;;;10.33;81.80;98934.72;4186234;28;20040;-67
2022/11/18 04:09:06;;;;;;;6.97;3.97;;;;;;;10.33;81.71;98934.72;4191487;28;20392;-67
2022/11/18 04:12:01;;;;;;;6.63;4.68;;;;;;;10.30;81.85;98933.88;4192436;28;20052;-67
2022/11/18 04:13:38;;;;;;;4.50;3.40;;;;;;;10.23;81.93;98945.19;4189263;28;20043;-67
2022/11/18 04:15:42;;;;;;;7.30;4.05;;;;;;;10.13;82.78;98949.63;4188119;28;20082;-67
2022/11/18 04:17:45;;;;;;;11.47;5.40;;;;;;;10.09;83.18;98942.72;4187176;28;20402;-67
2022/11/18 04:19:49;;;;;;;5.13;3.58;;;;;;;10.16;82.64;98946.09;4187257;28;20317;-67
2022/11/18 04:21:52;;;;;;;7.93;4.72;;;;;;;10.18;83.09;98948.69;4181635;28;20135;-67
2022/11/18 04:23:55;;;;;;;6.25;4.22;;;;;;;10.14;83.55;98955.66;4196110;28;20044;-67
2022/11/18 04:25:58;;;;;;;12.20;5.90;;;;;;;10.06;83.95;98953.13;4190810;28;20067;-67
2022/11/18 04:28:01;;;;;;;14.63;6.40;;;;;;;10.04;83.92;98959.22;4188900;28;20536;-67
2022/11/18 04:30:05;;;;;;;9.65;5.57;;;;;;;10.07;83.44;98965.22;4193731;28;20068;-67
2022/11/18 04:32:07;;;;;;;12.07;5.43;;;;;;;10.09;84.13;98957.41;4193594;28;20032;-67
2022/11/18 04:34:10;;;;;;;12.00;5.95;;;;;;;10.04;84.31;98964.41;4196113;28;20090;-67
2022/11/18 04:36:14;;;;;;;7.97;4.90;;;;;;;10.01;84.41;98959.22;4186270;28;20098;-67
2022/11/18 04:38:17;;;;;;;9.55;6.28;;;;;;;10.00;84.52;98960.94;4178897;28;20642;-66
2022/11/18 04:40:23;;;;;;;9.38;4.78;;;;;;;10.02;83.94;98972.19;4193454;28;20147;-66
2022/11/18 04:42:26;;;;;;;7.35;3.83;;;;;;;10.01;84.58;98970.47;4192637;28;20483;-66
2022/11/18 04:44:31;;;;;;;6.82;3.80;;;;;;;9.96;83.82;98973.09;4186067;28;20059;-66
2022/11/18 04:46:34;;;;;;;6.13;3.10;;;;;;;9.85;83.92;98979.25;4191130;28;20043;-66
2022/11/18 04:48:37;;;;;;;7.10;3.60;;;;;;;9.89;83.73;98978.38;4191558;28;20564;-67
2022/11/18 04:50:40;;;;;;;7.30;3.55;;;;;;;9.78;84.38;98984.50;4192030;28;20040;-66
2022/11/18 04:52:44;;;;;;;7.65;2.72;;;;;;;9.77;85.12;98987.09;4189107;28;20131;-66
2022/11/18 04:54:47;;;;;;;5.07;2.50;;;;;;;9.72;84.37;98994.88;4194331;28;20040;-65
2022/11/18 04:56:50;;;;;;;5.18;2.17;;;;;;;9.65;84.44;98992.34;4181477;28;20040;-66
2022/11/18 04:58:52;;;;;;;3.60;1.58;;;;;;;9.56;84.20;99008.81;4193042;28;20502;-66
2022/11/18 05:00:55;;;;;;;2.67;1.10;;;;;;;9.52;82.77;99013.19;4193002;28;20048;-65
2022/11/18 05:02:58;;;;;;;1.33;1.10;;;;;;;9.43;83.39;99020.97;4192440;28;20033;-66
2022/11/18 05:05:02;;;;;;;1.58;0.88;;;;;;;9.46;82.71;99013.19;4191034;28;20490;-66
2022/11/18 05:07:06;;;;;;;1.48;0.80;;;;;;;9.40;82.79;99021.88;4192357;28;20041;-66
2022/11/18 05:09:11;;;;;;;2.25;0.90;;;;;;;9.38;82.83;99023.59;4194375;28;20463;-66
2022/11/18 05:13:50;;;;;;;1.27;0.77;;;;;;;9.34;82.80;99037.44;4157793;28;20038;-66
2022/11/18 05:15:53;;;;;;;1.52;0.95;;;;;;;9.30;82.42;99034.88;4145824;28;20354;-66
2022/11/18 05:17:55;;;;;;;2.13;0.77;;;;;;;9.24;83.36;99035.75;4155786;28;20077;-66
2022/11/18 05:19:58;;;;;;;1.40;0.68;;;;;;;9.21;82.83;99046.13;4183073;28;20040;-66
2022/11/18 05:22:01;;;;;;;4.35;1.00;;;;;;;9.24;83.39;99046.13;4194136;28;20044;-66
2022/11/18 05:24:05;;;;;;;0.85;0.60;;;;;;;9.19;83.05;99040.09;4190569;28;20040;-66
2022/11/18 05:26:11;;;;;;;2.47;0.75;;;;;;;9.21;83.22;99043.53;4197303;28;20166;-66
2022/11/18 05:28:15;;;;;;;1.92;0.75;;;;;;;9.13;82.91;99050.50;4193720;28;20032;-66
2022/11/18 05:30:17;;;;;;;2.60;0.80;;;;;;;9.13;83.06;99055.69;4199620;28;20413;-66
2022/11/18 05:32:20;;;;;;;1.83;0.73;;;;;;;9.11;82.89;99057.41;4198418;28;20297;-66
2022/11/18 05:34:23;;;;;;;1.17;0.50;;;;;;;9.15;82.78;99064.31;4185052;28;20036;-66
2022/11/18 05:36:26;;;;;;;1.70;0.50;;;;;;;9.18;82.83;99057.38;4197278;28;20044;-67
2022/11/18 05:38:29;;;;;;;1.92;0.75;;;;;;;9.07;82.54;99070.38;4199516;28;20051;-66
2022/11/18 05:40:32;;;;;;;1.63;0.52;;;;;;;9.09;82.59;99071.22;4199499;28;20127;-66
2022/11/18 05:44:56;;;;;;;0.85;0.63;;;;;;;9.22;82.65;99071.22;4198428;28;20058;-66
2022/11/18 05:47:00;;;;;;;3.20;0.80;;;;;;;9.33;82.53;99072.06;4183062;28;20128;-66
2022/11/18 05:49:03;;;;;;;1.65;0.70;;;;;;;9.33;82.76;99078.94;4182810;28;20499;-66
2022/11/18 05:51:06;;;;;;;1.52;0.50;;;;;;;9.30;81.72;99079.84;4183015;28;20536;-66
2022/11/18 05:53:09;;;;;;;0.50;0.50;;;;;;;9.20;80.97;99083.31;4189351;28;20044;-66
2022/11/18 05:55:15;;;;;;;0.68;0.35;;;;;;;9.21;81.23;99082.44;4189366;28;20095;-66
2022/11/18 05:57:17;;;;;;;1.55;0.60;;;;;;;9.23;81.18;99081.59;4182749;28;20054;-66
2022/11/18 05:59:22;;;;;;;2.45;0.60;;;;;;;9.20;80.83;99091.97;4183590;28;20041;-66
2022/11/18 06:01:29;;;;;;;3.92;0.90;;;;;;;9.17;80.95;99086.78;4193155;28;20470;-66
2022/11/18 06:03:38;;;;;;;1.38;0.50;;;;;;;9.18;81.30;99100.59;4184931;28;20037;-66
2022/11/18 06:05:41;;;;;;;3.63;0.60;;;;;;;9.15;81.93;99096.28;4191206;28;20524;-66
2022/11/18 06:07:45;;;;;;;0.80;0.60;;;;;;;9.11;81.45;99097.16;4192497;28;20106;-65
2022/11/18 06:09:51;;;;;;;1.55;0.50;;;;;;;9.16;81.24;99097.16;4191111;28;20052;-66
2022/11/18 06:11:57;;;;;;;2.63;0.55;;;;;;;9.16;80.93;99104.94;4190766;28;20045;-66
2022/11/18 06:14:05;;;;;;;0.93;0.47;;;;;;;9.04;80.29;99111.00;4190641;28;20487;-65
2022/11/18 06:16:11;;;;;;;1.17;0.40;;;;;;;9.01;80.82;99109.28;4194652;28;20037;-65
2022/11/18 06:18:22;;;;;;;0.80;0.30;;;;;;;9.07;81.23;99111.84;4194430;28;20094;-65
2022/11/18 06:20:27;;;;;;;0.47;0.40;;;;;;;9.04;80.60;99117.06;4186591;28;20401;-66
2022/11/18 06:22:30;;;;;;;2.65;0.95;;;;;;;9.15;80.63;99116.16;4194617;28;20045;-67
2022/11/18 06:24:33;;;;;;;1.33;0.45;;;;;;;9.21;81.10;99122.22;4191427;28;20029;-66
2022/11/18 06:26:36;;;;;;;1.75;0.70;;;;;;;9.24;81.17;99127.41;4186401;28;20675;-67
2022/11/18 06:28:40;;;;;;;3.90;1.10;;;;;;;9.27;81.13;99134.28;4196919;28;20101;-64
2022/11/18 06:30:43;;;;;;;9.43;1.40;;;;;;;9.21;81.17;99131.72;4192337;28;20050;-65
2022/11/18 06:32:47;;;;;;;5.85;1.20;;;;;;;9.24;81.19;99134.28;4186585;28;20148;-65
2022/11/18 06:34:50;;;;;;;10.00;1.83;;;;;;;9.20;81.13;99140.34;4185441;28;20029;-68
2022/11/18 06:36:52;;;;;;;6.72;1.50;;;;;;;9.18;81.29;99144.69;4184749;28;20490;-68
2022/11/18 06:38:55;;;;;;;4.05;1.20;;;;;;;9.13;81.11;99146.44;4188733;28;20549;-67
2022/11/18 06:41:00;;;;;;;6.82;1.70;;;;;;;9.16;81.45;99149.03;4185909;28;20049;-67
2022/11/18 06:45:26;;;;;;;9.73;1.50;;;;;;;9.26;81.08;99155.91;4190345;28;20589;-68
2022/11/18 06:47:28;;;;;;;5.32;1.08;;;;;;;9.33;80.95;99168.00;4194481;28;20032;-68
2022/11/18 06:49:32;;;;;;;3.08;1.17;;;;;;;9.42;80.79;99167.97;4191546;28;20036;-67
2022/11/18 06:51:35;;;;;;;6.40;1.30;;;;;;;9.44;81.00;99165.38;4190994;28;20037;-68
2022/11/18 06:53:39;;;;;;;5.30;1.20;;;;;;;9.51;81.17;99172.28;4195232;28;20028;-66
2022/11/18 06:55:41;;;;;;;4.63;1.10;;;;;;;9.54;80.75;99174.88;4191207;28;20098;-65
2022/11/18 06:57:44;;;;;;;6.63;1.35;;;;;;;9.56;80.89;99186.13;4191301;28;20040;-66
2022/11/18 06:59:49;;;;;;;6.40;1.20;;;;;;;9.58;80.70;99186.97;4194700;28;20036;-66
2022/11/18 07:01:52;;;;;;;5.72;0.98;;;;;;;9.54;80.35;99192.19;4193235;28;20127;-66
2022/11/18 07:03:58;;;;;;;4.65;1.33;;;;;;;9.51;79.67;99190.44;4187094;28;20029;-66
2022/11/18 07:06:02;;;;;;;4.63;1.13;;;;;;;9.52;80.26;99193.91;4196862;28;20041;-66
2022/11/18 07:08:05;;;;;;;7.38;1.10;;;;;;;9.51;80.20;99194.78;4197404;28;20086;-66
2022/11/18 07:10:09;;;;;;;3.97;1.13;;;;;;;9.48;80.27;99198.25;4193495;28;20445;-66
2022/11/18 07:12:11;;;;;;;6.45;1.30;;;;;;;9.51;79.95;99202.56;4192429;28;20560;-66
2022/11/18 07:14:14;;;;;;;2.50;0.85;;;;;;;9.49;80.16;99202.56;4187803;28;20041;-66
2022/11/18 07:16:19;;;;;;;4.93;1.27;;;;;;;9.50;79.89;99206.03;4193590;28;20089;-66
2022/11/18 07:18:22;;;;;;;3.58;0.82;;;;;;;9.53;80.49;99206.00;4195835;28;20040;-65
2022/11/18 07:20:24;;;;;;;4.38;0.77;;;;;;;9.55;80.21;99214.63;4194178;28;20041;-66
2022/11/18 07:22:28;;;;;;;3.40;0.90;;;;;;;9.56;80.58;99216.38;4194438;28;20530;-66
2022/11/18 07:24:31;;;;;;;2.00;0.88;;;;;;;9.57;80.36;99223.31;4195075;28;20038;-66
2022/11/18 07:26:35;;;;;;;3.17;0.80;;;;;;;9.61;80.60;99225.03;4194463;28;20071;-66
2022/11/18 07:28:38;;;;;;;2.88;0.60;;;;;;;9.59;79.82;99226.75;4192182;28;20044;-66
2022/11/18 07:30:41;;;;;;;2.05;0.68;;;;;;;9.60;80.16;99229.34;4191281;28;20067;-66
2022/11/18 07:32:44;;;;;;;2.17;0.77;;;;;;;9.57;80.37;99233.69;4196565;28;20533;-66
2022/11/18 07:34:46;;;;;;;4.75;0.77;;;;;;;9.56;79.91;99238.03;4191737;28;20045;-66
2022/11/18 07:36:49;;;;;;;0.90;0.50;;;;;;;9.56;80.04;99235.44;4197676;28;20032;-66
2022/11/18 07:38:54;;;;;;;1.65;0.80;;;;;;;9.55;80.61;99241.47;4196412;28;20037;-66
2022/11/18 07:41:02;;;;;;;;;;;;;;;9.46;80.12;99251.84;4198114;28;20045;-66
2022/11/18 07:43:06;;;;;;;5.38;0.70;;;;;;;9.48;80.66;99247.53;4196201;28;20328;-66
2022/11/18 07:45:10;;;;;;;1.73;0.52;;;;;;;9.51;80.97;99259.66;4179360;28;20090;-66
2022/11/18 07:47:13;;;;;;;2.75;0.63;;;;;;;9.54;80.49;99259.63;4181379;28;20136;-66
2022/11/18 07:49:16;;;;;;;2.30;0.60;;;;;;;9.65;80.25;99260.50;4179898;28;20473;-66
2022/11/18 07:51:21;;;;;;;2.47;0.80;;;;;;;9.58;80.23;99266.56;4181474;28;20128;-66
2022/11/18 07:53:24;;;;;;;;;;;;;;;9.45;80.66;99270.88;4180470;28;20045;-66
2022/11/18 07:55:28;;;;;;;2.90;0.52;;;;;;;9.54;80.40;99270.00;4180853;28;20295;-66
2022/11/18 07:57:34;;;;;;;3.63;0.88;;;;;;;9.54;80.43;99275.19;4180906;28;20095;-66
2022/11/18 07:59:36;;;;;;;1.95;0.70;;;;;;;9.56;80.13;99279.53;4180839;28;20040;-66
2022/11/18 08:01:39;;;;;;;1.50;0.93;;;;;;;9.56;80.96;99283.84;4179570;28;20049;-66
2022/11/18 08:03:43;;;;;;;1.00;0.63;;;;;;;9.55;81.29;99282.97;4180091;28;20518;-66
2022/11/18 08:05:46;;;;;;;3.58;0.70;;;;;;;9.59;81.14;99281.22;4180408;28;20064;-66
2022/11/18 08:07:49;;;;;;;1.35;0.50;;;;;;;9.61;80.72;99284.72;4180189;28;20041;-66
2022/11/18 08:09:51;;;;;;;1.98;0.90;;;;;;;9.61;81.04;99284.72;4195969;28;20072;-66
2022/11/18 08:11:56;;;;;;;2.58;0.93;;;;;;;9.60;80.68;99293.34;4196234;28;20131;-66
2022/11/18 08:13:58;;;;;;;1.30;0.60;;;;;;;9.58;81.19;99293.34;4187334;28;20506;-66
2022/11/18 08:16:02;;;;;;;1.58;0.60;;;;;;;9.63;80.79;99297.69;4193224;28;20042;-66
2022/11/18 08:18:05;;;;;;;0.73;0.65;;;;;;;9.66;80.62;99290.75;4195832;28;20785;-66
2022/11/18 08:20:15;;;;;;;1.48;0.85;;;;;;;9.64;80.13;99301.97;4189484;28;20505;-65
2022/11/18 08:22:19;;;;;;;1.58;0.80;;;;;;;9.62;79.89;99304.59;4185588;28;20398;-66
2022/11/18 08:24:22;;;;;;;6.88;1.08;;;;;;;9.66;80.24;99306.31;4196123;28;20040;-66
2022/11/18 08:26:26;;;;;;;1.63;1.00;;;;;;;9.67;80.59;99302.88;4193645;28;20036;-66
2022/11/18 08:28:30;;;;;;;1.83;0.90;;;;;;;9.68;80.66;99311.50;4195933;28;20051;-66
2022/11/18 08:30:33;;;;;;;;;;;;;;;9.55;80.68;99308.03;4192550;28;20070;-66
2022/11/18 08:32:36;;;;;;;3.20;1.77;;;;;;;9.55;80.43;99316.72;4192664;28;19970;-66
2022/11/18 08:34:39;;;;;;;1.85;1.20;;;;;;;9.59;80.37;99314.97;4194258;28;20028;-65
2022/11/18 08:36:42;;;;;;;2.28;1.02;;;;;;;9.63;79.88;99318.44;4195955;28;20049;-66
2022/11/18 08:38:45;;;;;;;2.78;1.30;;;;;;;9.61;80.65;99314.09;4192468;28;20048;-66
2022/11/18 08:40:48;;;;;;;1.25;1.10;;;;;;;9.74;80.05;99320.16;4198130;28;20071;-66
2022/11/18 08:42:51;;;;;;;1.77;1.08;;;;;;;9.69;80.33;99314.09;4192303;28;20131;-66
2022/11/18 08:44:55;;;;;;;2.30;1.20;;;;;;;9.70;80.19;99322.75;4190853;28;20103;-66
2022/11/18 08:46:58;;;;;;;2.33;1.23;;;;;;;9.69;80.58;99324.47;4197918;28;20051;-66
2022/11/18 08:49:01;;;;;;;1.40;0.93;;;;;;;9.75;80.49;99311.50;4193359;28;20533;-66
2022/11/18 08:51:04;;;;;;;2.85;1.20;;;;;;;9.71;80.73;99319.28;4199142;28;20055;-66
2022/11/18 08:53:06;;;;;;;2.13;1.08;;;;;;;9.69;80.48;99315.84;4197874;28;20037;-66
2022/11/18 08:55:09;;;;;;;1.35;0.85;;;;;;;9.81;80.39;99322.75;4196088;28;20090;-66
2022/11/18 08:57:12;;;;;;;2.13;0.98;;;;;;;9.64;80.08;99321.03;4197860;28;20040;-66
2022/11/18 08:59:15;;;;;;;1.48;1.00;;;;;;;9.60;80.69;99324.50;4200135;28;20098;-66
2022/11/18 09:01:20;;;;;;;3.70;1.20;;;;;;;9.53;81.29;99315.81;4198949;28;20036;-66
2022/11/18 09:03:23;;;;;;;1.85;0.88;;;;;;;9.44;80.49;99316.69;4178705;28;20422;-66
2022/11/18 09:05:26;;;;;;;3.30;0.95;;;;;;;9.36;81.41;99326.22;4198908;28;20032;-66
2022/11/18 09:07:29;;;;;;;2.00;0.70;;;;;;;9.43;81.11;99330.56;4198695;28;20040;-66
2022/11/18 09:09:32;;;;;;;2.22;1.00;;;;;;;9.48;81.08;99327.09;4195291;28;20047;-66
2022/11/18 09:11:35;;;;;;;3.22;0.95;;;;;;;9.46;81.40;99331.41;4195842;28;20033;-66
2022/11/18 09:13:38;;;;;;;1.75;0.90;;;;;;;9.59;81.33;99328.81;4194080;28;20531;-66
2022/11/18 09:16:02;;;;;;;2.33;0.95;;;;;;;9.61;81.21;99334.00;4188306;28;20063;-65
2022/11/18 09:18:06;;;;;;;3.92;1.50;;;;;;;9.66;81.08;99331.41;4197539;28;20040;-65
2022/11/18 09:20:10;;;;;;;3.42;1.00;;;;;;;9.63;80.68;99331.41;4196174;28;20568;-65
2022/11/18 09:22:12;;;;;;;3.55;0.93;;;;;;;9.70;81.59;99327.94;4199631;28;20040;-65
2022/11/18 09:24:16;;;;;;;1.45;0.95;;;;;;;9.74;81.00;99335.72;4198851;28;20387;-66
2022/11/18 09:26:21;;;;;;;2.03;0.82;;;;;;;9.79;80.68;99326.19;4198543;28;20041;-66
2022/11/18 09:28:25;;;;;;;3.72;1.10;;;;;;;9.77;80.96;99334.88;4199631;28;20094;-66
2022/11/18 09:30:27;;;;;;;2.67;1.08;;;;;;;9.88;81.20;99337.44;4197196;28;20036;-66
2022/11/18 09:32:32;;;;;;;1.83;1.00;;;;;;;9.94;80.62;99333.13;4199567;28;20399;-66
2022/11/18 09:34:36;;;;;;;2.20;1.20;;;;;;;10.04;81.08;99338.28;4197133;28;20041;-66
2022/11/18 09:36:38;;;;;;;3.60;0.80;;;;;;;10.07;80.48;99338.28;4189328;28;20521;-66
2022/11/18 09:38:41;;;;;;;1.10;1.00;;;;;;;10.13;80.35;99344.34;4182943;28;20045;-66
2022/11/18 09:40:56;;;;;;;2.78;0.70;;;;;;;10.21;80.38;99336.53;4181851;28;20052;-66
2022/11/18 09:43:06;;;;;;;3.67;1.13;;;;;;;10.19;79.73;99348.66;4183388;28;20049;-66
2022/11/18 09:45:19;;;;;;;2.15;1.42;;;;;;;10.24;79.90;99351.25;4182411;28;20649;-66
2022/11/18 09:47:29;;;;;;;3.65;1.30;;;;;;;10.22;80.70;99352.97;4182906;28;20041;-66
2022/11/18 09:49:35;;;;;;;1.63;0.93;;;;;;;10.22;80.58;99360.75;4182838;28;20044;-66
2022/11/18 09:51:42;;;;;;;2.58;1.02;;;;;;;10.18;80.09;99359.03;4182522;28;20041;-66
2022/11/18 09:53:46;;;;;;;4.18;1.38;;;;;;;10.09;80.63;99363.38;4182049;28;20049;-66
2022/11/18 09:55:50;;;;;;;4.10;1.20;;;;;;;10.12;80.37;99362.53;4181417;28;20064;-68
2022/11/18 09:57:58;;;;;;;3.20;1.30;;;;;;;10.17;80.60;99365.09;4194710;28;20036;-66
2022/11/18 10:00:01;;;;;;;2.95;1.85;;;;;;;10.26;80.30;99375.47;4197854;28;20044;-66
2022/11/18 10:02:30;;;;;;;3.20;1.48;;;;;;;10.26;80.83;99371.13;4194507;28;20051;-67
2022/11/18 10:04:33;;;;;;;2.78;1.50;;;;;;;10.18;80.88;99372.00;4196514;28;20406;-67
2022/11/18 10:06:36;;;;;;;4.85;1.73;;;;;;;10.27;81.01;99372.00;4190772;28;20029;-67
2022/11/18 10:08:48;;;;;;;2.65;1.33;;;;;;;10.40;80.16;99373.75;4199043;28;20098;-67